createdAt,value
2019-04-27T00:01:48.453Z,7.70
2019-04-27T00:04:55.829Z,7.70
2019-04-27T00:07:57.851Z,7.70
2019-04-27T00:11:05.102Z,7.70
2019-04-27T00:13:49.173Z,7.70
2019-04-27T00:16:50.503Z,7.70
2019-04-27T00:19:48.094Z,7.70
2019-04-27T00:22:38.441Z,7.70
2019-04-27T00:25:23.530Z,7.70
2019-04-27T00:28:08.676Z,7.70
2019-04-27T00:30:54.248Z,7.70
2019-04-27T00:33:39.600Z,7.70
2019-04-27T00:36:35.240Z,7.70
2019-04-27T00:39:30.443Z,7.70
2019-04-27T00:42:15.995Z,7.70
2019-04-27T00:45:02.956Z,7.70
2019-04-27T00:47:56.473Z,7.70
2019-04-27T00:50:35.542Z,7.70
2019-04-27T00:53:20.773Z,7.70
2019-04-27T00:56:25.300Z,7.70
2019-04-27T00:59:30.425Z,7.80
2019-04-27T01:02:29.177Z,7.70
2019-04-27T01:05:18.501Z,7.80
2019-04-27T01:08:03.895Z,7.80
2019-04-27T01:10:48.974Z,7.70
2019-04-27T01:13:35.005Z,7.70
2019-04-27T01:16:22.486Z,7.80
2019-04-27T01:19:08.477Z,7.80
2019-04-27T01:21:54.859Z,7.80
2019-04-27T01:24:40.318Z,7.80
2019-04-27T01:27:34.078Z,7.80
2019-04-27T01:30:27.042Z,7.80
2019-04-27T01:33:12.674Z,7.80
2019-04-27T01:35:58.912Z,7.80
2019-04-27T01:38:44.062Z,7.70
2019-04-27T01:41:29.533Z,7.70
2019-04-27T01:44:15.050Z,7.70
2019-04-27T01:47:00.074Z,7.70
2019-04-27T01:49:45.446Z,7.60
2019-04-27T01:52:30.934Z,7.70
2019-04-27T01:55:16.407Z,7.70
2019-04-27T01:58:02.070Z,7.70
2019-04-27T02:01:04.922Z,7.70
2019-04-27T02:03:56.945Z,7.70
2019-04-27T02:06:42.438Z,7.70
2019-04-27T02:09:28.894Z,7.60
2019-04-27T02:12:14.258Z,7.60
2019-04-27T02:14:59.183Z,7.60
2019-04-27T02:17:44.846Z,7.60
2019-04-27T02:20:30.223Z,7.60
2019-04-27T02:23:15.702Z,7.60
2019-04-27T02:26:01.267Z,7.60
2019-04-27T02:29:01.985Z,7.60
2019-04-27T02:32:06.731Z,7.60
2019-04-27T02:35:00.172Z,7.60
2019-04-27T02:37:45.426Z,7.60
2019-04-27T02:40:49.883Z,7.60
2019-04-27T02:43:44.422Z,7.60
2019-04-27T02:46:31.581Z,7.60
2019-04-27T02:49:20.016Z,7.60
2019-04-27T02:52:25.375Z,7.60
2019-04-27T02:55:10.534Z,7.60
2019-04-27T02:57:55.935Z,7.60
2019-04-27T03:00:41.506Z,7.60
2019-04-27T03:03:26.878Z,7.60
2019-04-27T03:06:11.887Z,7.60
2019-04-27T03:09:00.006Z,7.60
2019-04-27T03:11:44.557Z,7.60
2019-04-27T03:14:50.333Z,7.60
2019-04-27T03:17:54.773Z,7.60
2019-04-27T03:20:45.158Z,7.60
2019-04-27T03:23:30.719Z,7.60
2019-04-27T03:26:33.099Z,7.60
2019-04-27T03:29:22.510Z,7.60
2019-04-27T03:32:05.279Z,7.60
2019-04-27T03:34:52.402Z,7.60
2019-04-27T03:37:40.217Z,7.60
2019-04-27T03:40:25.369Z,7.50
2019-04-27T03:43:20.163Z,7.50
2019-04-27T03:46:05.156Z,7.50
2019-04-27T03:48:50.469Z,7.50
2019-04-27T03:51:50.044Z,7.50
2019-04-27T03:54:44.005Z,7.50
2019-04-27T03:57:36.894Z,7.50
2019-04-27T04:00:24.127Z,7.50
2019-04-27T04:03:10.702Z,7.40
2019-04-27T04:05:56.040Z,7.40
2019-04-27T04:08:41.753Z,7.40
2019-04-27T04:11:39.546Z,7.40
2019-04-27T04:14:25.282Z,7.40
2019-04-27T04:17:12.930Z,7.50
2019-04-27T04:20:01.691Z,7.50
2019-04-27T04:22:47.542Z,7.50
2019-04-27T04:25:33.320Z,7.50
2019-04-27T04:28:19.862Z,7.50
2019-04-27T04:31:05.563Z,7.50
2019-04-27T04:33:51.588Z,7.50
2019-04-27T04:36:36.894Z,7.50
2019-04-27T04:39:22.533Z,7.50
2019-04-27T04:42:25.274Z,7.50
2019-04-27T04:45:21.195Z,7.60
2019-04-27T04:48:10.386Z,7.50
2019-04-27T04:50:56.150Z,7.60
2019-04-27T04:53:41.202Z,7.50
2019-04-27T04:56:26.650Z,7.50
2019-04-27T04:59:11.639Z,7.60
2019-04-27T05:01:56.599Z,7.60
2019-04-27T05:04:42.289Z,7.60
2019-04-27T05:07:27.269Z,7.70
2019-04-27T05:10:12.405Z,7.70
2019-04-27T05:12:58.854Z,7.70
2019-04-27T05:15:44.902Z,7.70
2019-04-27T05:18:30.015Z,7.70
2019-04-27T05:21:32.634Z,7.70
2019-04-27T05:24:19.256Z,7.70
2019-04-27T05:27:04.431Z,7.60
2019-04-27T05:29:50.544Z,7.60
2019-04-27T05:32:35.609Z,7.60
2019-04-27T05:35:21.126Z,7.50
2019-04-27T05:38:07.537Z,7.60
2019-04-27T05:40:53.724Z,7.70
2019-04-27T05:43:45.181Z,7.80
2019-04-27T05:46:49.310Z,7.80
2019-04-27T05:49:41.052Z,7.80
2019-04-27T05:52:31.816Z,7.80
2019-04-27T05:55:19.115Z,7.80
2019-04-27T05:58:04.821Z,7.90
2019-04-27T06:00:50.095Z,7.90
2019-04-27T06:03:35.878Z,8.10
2019-04-27T06:06:21.350Z,8.20
2019-04-27T06:09:06.718Z,8.40
2019-04-27T06:11:52.276Z,8.50
2019-04-27T06:14:39.233Z,8.60
2019-04-27T06:17:24.470Z,8.60
2019-04-27T06:20:09.634Z,8.80
2019-04-27T06:22:55.226Z,8.60
2019-04-27T06:25:40.879Z,8.60
2019-04-27T06:28:26.014Z,8.80
2019-04-27T06:31:11.301Z,8.90
2019-04-27T06:33:56.433Z,8.90
2019-04-27T06:36:42.050Z,9.00
2019-04-27T06:39:27.085Z,9.00
2019-04-27T06:42:18.190Z,9.00
2019-04-27T06:45:00.196Z,9.10
2019-04-27T06:47:45.478Z,9.60
2019-04-27T06:50:30.871Z,9.80
2019-04-27T06:53:16.142Z,10.10
2019-04-27T06:56:01.819Z,9.80
2019-04-27T06:58:46.978Z,9.80
2019-04-27T07:01:33.583Z,9.80
2019-04-27T07:04:19.617Z,9.80
2019-04-27T07:07:05.349Z,9.80
2019-04-27T07:09:50.549Z,9.90
2019-04-27T07:12:36.016Z,10.10
2019-04-27T07:15:21.458Z,10.40
2019-04-27T07:18:06.923Z,10.30
2019-04-27T07:20:52.233Z,10.60
2019-04-27T07:23:56.097Z,10.80
2019-04-27T07:26:41.137Z,11.20
2019-04-27T07:29:27.154Z,11.50
2019-04-27T07:32:12.729Z,11.90
2019-04-27T07:34:58.675Z,12.20
2019-04-27T07:37:44.163Z,12.00
2019-04-27T07:40:30.399Z,11.90
2019-04-27T07:43:29.298Z,12.30
2019-04-27T07:46:14.769Z,12.70
2019-04-27T07:48:59.856Z,13.20
2019-04-27T07:51:45.365Z,13.50
2019-04-27T07:54:30.982Z,13.90
2019-04-27T07:57:16.602Z,14.00
2019-04-27T08:00:02.170Z,13.30
2019-04-27T08:02:48.610Z,13.10
2019-04-27T08:05:34.061Z,13.50
2019-04-27T08:08:19.514Z,13.40
2019-04-27T08:11:04.405Z,13.50
2019-04-27T08:13:49.432Z,13.50
2019-04-27T08:16:34.486Z,13.90
2019-04-27T08:19:20.159Z,14.20
2019-04-27T08:22:06.285Z,14.50
2019-04-27T08:24:51.265Z,14.90
2019-04-27T08:27:56.377Z,14.60
2019-04-27T08:30:53.398Z,14.30
2019-04-27T08:33:38.914Z,14.10
2019-04-27T08:36:24.210Z,14.70
2019-04-27T08:39:09.634Z,15.00
2019-04-27T08:41:54.750Z,15.80
2019-04-27T08:44:40.677Z,17.30
2019-04-27T08:47:25.783Z,17.70
2019-04-27T08:50:11.318Z,17.30
2019-04-27T08:52:56.685Z,17.20
2019-04-27T08:55:41.621Z,17.30
2019-04-27T08:58:28.481Z,17.40
2019-04-27T09:01:13.981Z,17.80
2019-04-27T09:03:59.607Z,17.40
2019-04-27T09:06:47.129Z,16.80
2019-04-27T09:09:42.638Z,16.20
2019-04-27T09:12:51.835Z,16.40
2019-04-27T09:15:41.873Z,16.60
2019-04-27T09:18:29.072Z,16.50
2019-04-27T09:21:15.647Z,16.60
2019-04-27T09:24:00.803Z,17.20
2019-04-27T09:26:46.070Z,17.50
2019-04-27T09:29:31.594Z,18.00
2019-04-27T09:32:16.801Z,18.30
2019-04-27T09:35:02.401Z,19.00
2019-04-27T09:37:47.653Z,19.10
2019-04-27T09:40:32.805Z,19.40
2019-04-27T09:43:18.301Z,19.50
2019-04-27T09:46:03.161Z,19.40
2019-04-27T09:48:48.194Z,19.60
2019-04-27T09:51:33.590Z,20.40
2019-04-27T09:54:18.449Z,20.90
2019-04-27T09:57:03.239Z,21.00
2019-04-27T09:59:48.991Z,21.00
2019-04-27T10:02:34.238Z,19.60
2019-04-27T10:05:19.122Z,18.10
2019-04-27T10:08:06.106Z,17.70
2019-04-27T10:10:51.215Z,17.60
2019-04-27T10:13:36.840Z,17.10
2019-04-27T10:16:22.193Z,17.20
2019-04-27T10:19:07.509Z,17.40
2019-04-27T10:21:52.822Z,17.60
2019-04-27T10:24:37.950Z,17.90
2019-04-27T10:27:23.647Z,17.90
2019-04-27T10:30:08.701Z,18.30
2019-04-27T10:32:54.674Z,18.90
2019-04-27T10:35:39.674Z,19.20
2019-04-27T10:38:25.942Z,19.20
2019-04-27T10:41:11.317Z,19.50
2019-04-27T10:43:56.979Z,19.60
2019-04-27T10:46:42.409Z,19.50
2019-04-27T10:49:27.168Z,19.50
2019-04-27T10:52:13.195Z,19.30
2019-04-27T10:54:58.081Z,19.20
2019-04-27T10:57:43.425Z,19.00
2019-04-27T11:00:36.771Z,18.80
2019-04-27T11:03:40.058Z,18.90
2019-04-27T11:06:31.466Z,18.70
2019-04-27T11:09:16.939Z,18.70
2019-04-27T11:12:02.528Z,19.00
2019-04-27T11:14:47.993Z,18.70
2019-04-27T11:17:33.222Z,18.60
2019-04-27T11:20:18.066Z,18.60
2019-04-27T11:23:09.420Z,18.10
2019-04-27T11:25:50.194Z,18.10
2019-04-27T11:28:36.025Z,17.90
2019-04-27T11:31:21.545Z,17.50
2019-04-27T11:34:06.912Z,17.50
2019-04-27T11:37:02.942Z,17.70
2019-04-27T11:39:48.598Z,17.60
2019-04-27T11:42:33.962Z,17.70
2019-04-27T11:45:19.533Z,17.90
2019-04-27T11:48:05.789Z,17.90
2019-04-27T11:50:51.185Z,18.40
2019-04-27T11:53:37.002Z,18.50
2019-04-27T11:56:22.022Z,18.70
2019-04-27T11:59:07.145Z,18.50
2019-04-27T12:01:52.585Z,18.00
2019-04-27T12:04:38.177Z,17.40
2019-04-27T12:07:23.753Z,17.30
2019-04-27T12:10:08.849Z,17.70
2019-04-27T12:12:56.091Z,17.90
2019-04-27T12:15:40.915Z,17.80
2019-04-27T12:18:25.821Z,17.80
2019-04-27T12:21:10.966Z,18.10
2019-04-27T12:23:56.422Z,17.90
2019-04-27T12:27:13.292Z,17.50
2019-04-27T12:30:17.789Z,17.30
2019-04-27T12:33:03.270Z,16.70
2019-04-27T12:35:48.737Z,17.40
2019-04-27T12:38:33.881Z,17.20
2019-04-27T12:41:19.205Z,18.80
2019-04-27T12:44:04.151Z,19.80
2019-04-27T12:46:49.612Z,19.10
2019-04-27T12:49:36.231Z,19.10
2019-04-27T12:52:22.478Z,20.30
2019-04-27T12:55:26.189Z,19.50
2019-04-27T12:58:23.418Z,18.80
2019-04-27T13:01:11.426Z,19.80
2019-04-27T13:03:58.880Z,21.80
2019-04-27T13:06:44.149Z,23.70
2019-04-27T13:09:29.310Z,24.60
2019-04-27T13:12:14.647Z,24.80
2019-04-27T13:14:59.651Z,24.60
2019-04-27T13:17:44.834Z,24.80
2019-04-27T13:20:29.986Z,23.10
2019-04-27T13:23:15.286Z,21.70
2019-04-27T13:26:00.479Z,20.70
2019-04-27T13:28:46.733Z,19.60
2019-04-27T13:31:32.082Z,19.00
2019-04-27T13:34:17.289Z,18.60
2019-04-27T13:37:04.436Z,18.30
2019-04-27T13:39:49.933Z,18.10
2019-04-27T13:42:40.322Z,18.60
2019-04-27T13:45:41.125Z,18.90
2019-04-27T13:48:36.408Z,18.40
2019-04-27T13:51:34.081Z,17.90
2019-04-27T13:54:25.464Z,17.80
2019-04-27T13:57:07.538Z,17.90
2019-04-27T13:59:53.207Z,17.60
2019-04-27T14:02:38.342Z,16.90
2019-04-27T14:05:23.923Z,16.40
2019-04-27T14:08:09.802Z,16.00
2019-04-27T14:10:54.974Z,15.60
2019-04-27T14:13:39.898Z,14.70
2019-04-27T14:16:24.993Z,14.00
2019-04-27T14:19:10.984Z,13.30
2019-04-27T14:21:56.626Z,12.80
2019-04-27T14:24:42.129Z,12.60
2019-04-27T14:27:30.882Z,12.90
2019-04-27T14:30:16.998Z,13.40
2019-04-27T14:33:01.879Z,13.50
2019-04-27T14:35:48.008Z,14.20
2019-04-27T14:38:33.828Z,14.30
2019-04-27T14:41:19.311Z,14.00
2019-04-27T14:44:08.185Z,13.70
2019-04-27T14:46:52.370Z,13.40
2019-04-27T14:49:39.072Z,13.20
2019-04-27T14:52:24.546Z,13.10
2019-04-27T14:55:09.609Z,13.10
2019-04-27T14:57:54.992Z,13.20
2019-04-27T15:00:40.275Z,13.20
2019-04-27T15:03:25.826Z,13.20
2019-04-27T15:06:10.847Z,13.20
2019-04-27T15:08:56.053Z,13.00
2019-04-27T15:11:41.430Z,13.00
2019-04-27T15:14:26.782Z,13.00
2019-04-27T15:17:12.767Z,12.60
2019-04-27T15:20:03.265Z,12.30
2019-04-27T15:22:52.532Z,12.10
2019-04-27T15:25:45.002Z,12.10
2019-04-27T15:28:27.762Z,12.00
2019-04-27T15:31:35.362Z,12.00
2019-04-27T15:34:34.055Z,12.00
2019-04-27T15:37:34.204Z,12.00
2019-04-27T15:40:26.866Z,12.00
2019-04-27T15:43:18.287Z,12.10
2019-04-27T15:46:03.499Z,12.10
2019-04-27T15:48:48.837Z,12.10
2019-04-27T15:51:34.469Z,12.20
2019-04-27T15:54:22.368Z,12.00
2019-04-27T15:57:12.344Z,12.00
2019-04-27T15:59:53.566Z,11.90
2019-04-27T16:02:38.795Z,11.80
2019-04-27T16:05:28.638Z,11.80
2019-04-27T16:08:15.337Z,11.70
2019-04-27T16:10:58.783Z,11.60
2019-04-27T16:13:44.632Z,11.50
2019-04-27T16:16:33.453Z,11.50
2019-04-27T16:19:18.399Z,11.30
2019-04-27T16:22:03.493Z,11.30
2019-04-27T16:24:49.480Z,11.20
2019-04-27T16:27:35.465Z,11.20
2019-04-27T16:30:20.656Z,11.10
2019-04-27T16:33:05.911Z,11.00
2019-04-27T16:35:53.182Z,10.90
2019-04-27T16:38:49.844Z,10.80
2019-04-27T16:41:37.394Z,10.80
2019-04-27T16:44:22.465Z,10.70
2019-04-27T16:47:08.409Z,10.70
2019-04-27T16:49:53.397Z,10.70
2019-04-27T16:52:39.027Z,10.60
2019-04-27T16:55:28.074Z,10.70
2019-04-27T16:58:16.028Z,10.60
2019-04-27T17:01:04.175Z,10.50
2019-04-27T17:03:48.498Z,10.40
2019-04-27T17:06:34.322Z,10.30
2019-04-27T17:09:19.336Z,10.30
2019-04-27T17:12:05.294Z,10.20
2019-04-27T17:15:12.446Z,10.20
2019-04-27T17:18:20.017Z,10.20
2019-04-27T17:21:16.157Z,10.10
2019-04-27T17:23:51.404Z,10.10
2019-04-27T17:26:42.285Z,10.10
2019-04-27T17:29:23.233Z,10.10
2019-04-27T17:32:10.333Z,10.10
2019-04-27T17:34:59.392Z,10.10
2019-04-27T17:37:42.620Z,10.10
2019-04-27T17:40:29.858Z,10.10
2019-04-27T17:43:16.151Z,10.10
2019-04-27T17:46:01.252Z,10.10
2019-04-27T17:48:48.530Z,10.10
2019-04-27T17:51:35.152Z,10.10
2019-04-27T17:54:21.818Z,10.00
2019-04-27T17:57:10.409Z,10.00
2019-04-27T17:59:58.755Z,10.00
2019-04-27T18:02:42.645Z,10.00
2019-04-27T18:05:28.520Z,9.90
2019-04-27T18:08:18.416Z,9.90
2019-04-27T18:11:03.258Z,9.90
2019-04-27T18:13:48.776Z,9.80
2019-04-27T18:16:34.599Z,9.80
2019-04-27T18:19:24.466Z,9.90
2019-04-27T18:22:09.673Z,9.60
2019-04-27T18:25:06.408Z,9.20
2019-04-27T18:28:20.003Z,8.90
2019-04-27T18:31:11.531Z,8.70
2019-04-27T18:33:54.514Z,8.60
2019-04-27T18:36:43.803Z,8.50
2019-04-27T18:39:26.802Z,8.50
2019-04-27T18:42:11.741Z,8.50
2019-04-27T18:44:56.436Z,8.40
2019-04-27T18:47:43.638Z,8.50
2019-04-27T18:50:48.426Z,8.50
2019-04-27T18:53:30.975Z,8.40
2019-04-27T18:56:16.327Z,8.40
2019-04-27T18:59:02.136Z,8.40
2019-04-27T19:01:48.833Z,8.30
2019-04-27T19:04:34.570Z,8.30
2019-04-27T19:07:20.077Z,8.30
2019-04-27T19:10:05.303Z,8.20
2019-04-27T19:12:50.601Z,8.20
2019-04-27T19:15:36.193Z,8.20
2019-04-27T19:18:22.263Z,8.20
2019-04-27T19:21:08.795Z,8.10
2019-04-27T19:23:55.191Z,8.10
2019-04-27T19:27:17.902Z,8.10
2019-04-27T19:30:03.817Z,8.10
2019-04-27T19:32:48.962Z,8.00
2019-04-27T19:35:34.156Z,7.90
2019-04-27T19:38:19.158Z,7.90
2019-04-27T19:41:04.209Z,7.80
2019-04-27T19:43:49.129Z,7.80
2019-04-27T19:46:34.329Z,7.80
2019-04-27T19:49:19.462Z,7.80
2019-04-27T19:52:05.302Z,7.80
2019-04-27T19:54:50.903Z,7.80
2019-04-27T19:57:40.334Z,7.80
2019-04-27T20:00:35.771Z,7.70
2019-04-27T20:03:28.875Z,7.70
2019-04-27T20:06:14.462Z,7.70
2019-04-27T20:09:01.345Z,7.70
2019-04-27T20:11:46.538Z,7.70
2019-04-27T20:14:51.585Z,7.70
2019-04-27T20:17:36.852Z,7.70
2019-04-27T20:20:21.941Z,7.70
2019-04-27T20:23:06.969Z,7.80
2019-04-27T20:25:51.886Z,7.80
2019-04-27T20:28:38.535Z,7.80
2019-04-27T20:31:24.089Z,7.80
2019-04-27T20:34:09.317Z,7.80
2019-04-27T20:36:54.050Z,7.80
2019-04-27T20:39:42.553Z,7.80
2019-04-27T20:42:26.811Z,7.70
2019-04-27T20:45:12.134Z,7.70
2019-04-27T20:47:57.441Z,7.60
2019-04-27T20:50:42.529Z,7.60
2019-04-27T20:53:32.475Z,7.50
2019-04-27T20:56:17.857Z,7.50
2019-04-27T20:59:02.814Z,7.50
2019-04-27T21:01:48.090Z,7.40
2019-04-27T21:04:34.642Z,7.40
2019-04-27T21:07:36.121Z,7.30
2019-04-27T21:10:21.758Z,7.20
2019-04-27T21:13:07.382Z,7.20
2019-04-27T21:15:53.467Z,7.10
2019-04-27T21:18:39.005Z,7.00
2019-04-27T21:21:24.198Z,7.00
2019-04-27T21:24:09.569Z,6.90
2019-04-27T21:26:55.258Z,6.90
2019-04-27T21:29:42.062Z,6.90
2019-04-27T21:32:27.454Z,6.80
2019-04-27T21:35:12.118Z,6.70
2019-04-27T21:37:57.598Z,6.60
2019-04-27T21:40:42.809Z,6.50
2019-04-27T21:43:27.950Z,6.50
2019-04-27T21:46:13.017Z,6.50
2019-04-27T21:48:58.741Z,6.50
2019-04-27T21:52:02.596Z,6.60
2019-04-27T21:54:48.497Z,6.50
2019-04-27T21:57:33.101Z,6.60
2019-04-27T22:00:42.756Z,6.60
2019-04-27T22:03:31.624Z,6.60
2019-04-27T22:06:16.924Z,6.50
2019-04-27T22:09:04.649Z,6.60
2019-04-27T22:11:51.105Z,6.50
2019-04-27T22:14:36.382Z,6.50
2019-04-27T22:17:21.273Z,6.50
2019-04-27T22:20:06.337Z,6.50
2019-04-27T22:22:53.749Z,6.40
2019-04-27T22:25:39.122Z,6.50
2019-04-27T22:28:24.211Z,6.40
2019-04-27T22:31:12.367Z,6.40
2019-04-27T22:33:56.547Z,6.40
2019-04-27T22:36:41.611Z,6.40
2019-04-27T22:39:44.878Z,6.40
2019-04-27T22:42:59.006Z,6.40
2019-04-27T22:45:44.630Z,6.40
2019-04-27T22:48:32.839Z,6.40
2019-04-27T22:51:17.102Z,6.40
2019-04-27T22:54:02.378Z,6.30
2019-04-27T22:56:47.837Z,6.40
2019-04-27T22:59:48.561Z,6.40
2019-04-27T23:02:46.770Z,6.30
2019-04-27T23:05:32.397Z,6.30
2019-04-27T23:08:17.870Z,6.30
2019-04-27T23:11:02.771Z,6.40
2019-04-27T23:13:48.058Z,6.40
2019-04-27T23:16:34.992Z,6.50
2019-04-27T23:19:21.038Z,6.40
2019-04-27T23:22:06.774Z,6.40
2019-04-27T23:24:52.063Z,6.30
2019-04-27T23:27:37.117Z,6.30
2019-04-27T23:30:31.199Z,6.30
2019-04-27T23:33:16.741Z,6.20
2019-04-27T23:36:45.462Z,6.20
2019-04-27T23:39:30.770Z,6.20
2019-04-27T23:42:15.854Z,6.20
2019-04-27T23:45:01.217Z,6.20
2019-04-27T23:47:46.354Z,6.20
2019-04-27T23:50:33.454Z,6.20
2019-04-27T23:53:21.886Z,6.20
2019-04-27T23:56:07.631Z,6.20
2019-04-27T23:58:52.893Z,6.20
